createdAt,value
2019-02-05T00:00:44.643Z,5.00
2019-02-05T00:03:14.554Z,5.00
2019-02-05T00:05:42.858Z,5.00
2019-02-05T00:08:11.271Z,5.00
2019-02-05T00:10:39.531Z,5.00
2019-02-05T00:13:07.799Z,5.00
2019-02-05T00:15:36.166Z,5.00
2019-02-05T00:18:04.494Z,5.10
2019-02-05T00:20:32.838Z,5.10
2019-02-05T00:23:01.094Z,5.10
2019-02-05T00:25:29.438Z,5.10
2019-02-05T00:27:57.691Z,5.20
2019-02-05T00:30:26.322Z,5.20
2019-02-05T00:32:54.627Z,5.20
2019-02-05T00:35:22.987Z,5.20
2019-02-05T00:37:51.265Z,5.20
2019-02-05T00:40:19.586Z,5.20
2019-02-05T00:42:47.860Z,5.20
2019-02-05T00:45:17.835Z,5.30
2019-02-05T00:47:46.107Z,5.30
2019-02-05T00:50:18.603Z,5.30
2019-02-05T00:52:46.946Z,5.30
2019-02-05T00:55:22.323Z,5.30
2019-02-05T00:57:50.667Z,5.30
2019-02-05T01:00:34.837Z,5.30
2019-02-05T01:03:03.188Z,5.30
2019-02-05T01:05:31.516Z,5.30
2019-02-05T01:07:59.855Z,5.20
2019-02-05T01:10:28.175Z,5.20
2019-02-05T01:12:56.920Z,5.20
2019-02-05T01:15:25.764Z,5.20
2019-02-05T01:17:54.100Z,5.20
2019-02-05T01:20:23.086Z,5.10
2019-02-05T01:22:51.382Z,5.20
2019-02-05T01:25:20.760Z,5.10
2019-02-05T01:27:49.391Z,5.10
2019-02-05T01:30:24.665Z,5.20
2019-02-05T01:32:52.967Z,5.20
2019-02-05T01:35:21.338Z,5.20
2019-02-05T01:37:49.666Z,5.20
2019-02-05T01:40:19.887Z,5.20
2019-02-05T01:42:48.160Z,5.20
2019-02-05T01:45:17.767Z,5.20
2019-02-05T01:47:46.092Z,5.20
2019-02-05T01:50:17.467Z,5.20
2019-02-05T01:52:45.719Z,5.30
2019-02-05T01:55:13.978Z,5.30
2019-02-05T01:57:42.615Z,5.30
2019-02-05T02:00:17.319Z,5.30
2019-02-05T02:02:45.624Z,5.40
2019-02-05T02:05:13.956Z,5.40
2019-02-05T02:07:42.309Z,5.40
2019-02-05T02:10:22.991Z,5.40
2019-02-05T02:12:51.331Z,5.40
2019-02-05T02:15:19.618Z,5.40
2019-02-05T02:17:47.890Z,5.40
2019-02-05T02:20:20.974Z,5.50
2019-02-05T02:22:49.306Z,5.50
2019-02-05T02:25:17.672Z,5.50
2019-02-05T02:27:46.370Z,5.50
2019-02-05T02:30:32.949Z,5.50
2019-02-05T02:33:01.267Z,5.50
2019-02-05T02:35:29.555Z,5.60
2019-02-05T02:37:57.881Z,5.60
2019-02-05T02:40:26.143Z,5.50
2019-02-05T02:42:54.516Z,5.60
2019-02-05T02:45:22.780Z,5.60
2019-02-05T02:47:51.211Z,5.60
2019-02-05T02:50:21.328Z,5.60
2019-02-05T02:52:50.124Z,5.60
2019-02-05T02:55:18.448Z,5.60
2019-02-05T02:57:46.734Z,5.60
2019-02-05T03:00:22.007Z,5.60
2019-02-05T03:02:51.782Z,5.50
2019-02-05T03:05:22.458Z,5.50
2019-02-05T03:07:50.871Z,5.50
2019-02-05T03:10:26.935Z,5.50
2019-02-05T03:12:55.444Z,5.40
2019-02-05T03:15:23.787Z,5.40
2019-02-05T03:17:52.050Z,5.40
2019-02-05T03:20:20.439Z,5.40
2019-02-05T03:22:48.782Z,5.40
2019-02-05T03:25:22.014Z,5.40
2019-02-05T03:28:00.016Z,5.30
2019-02-05T03:30:22.048Z,5.40
2019-02-05T03:32:50.502Z,5.40
2019-02-05T03:35:19.260Z,5.30
2019-02-05T03:37:47.659Z,5.30
2019-02-05T03:40:31.423Z,5.40
2019-02-05T03:42:59.801Z,5.40
2019-02-05T03:45:29.057Z,5.40
2019-02-05T03:48:04.323Z,5.40
2019-02-05T03:50:35.907Z,5.40
2019-02-05T03:53:07.808Z,5.40
2019-02-05T03:55:42.380Z,5.40
2019-02-05T03:58:30.610Z,5.40
2019-02-05T04:01:19.788Z,5.40
2019-02-05T04:04:09.392Z,5.40
2019-02-05T04:06:53.090Z,5.40
2019-02-05T04:09:48.486Z,5.40
2019-02-05T04:12:22.944Z,5.40
2019-02-05T04:15:06.423Z,5.40
2019-02-05T04:17:46.766Z,5.40
2019-02-05T04:20:27.160Z,5.40
2019-02-05T04:23:02.512Z,5.50
2019-02-05T04:26:00.623Z,5.50
2019-02-05T04:28:32.171Z,5.50
2019-02-05T04:31:09.688Z,5.50
2019-02-05T04:33:46.903Z,5.50
2019-02-05T04:36:38.887Z,5.50
2019-02-05T04:39:22.310Z,5.50
2019-02-05T04:42:02.422Z,5.50
2019-02-05T04:44:45.797Z,5.50
2019-02-05T04:47:33.895Z,5.50
2019-02-05T04:50:26.380Z,5.50
2019-02-05T04:53:18.826Z,5.50
2019-02-05T04:55:52.948Z,5.50
2019-02-05T04:58:30.254Z,5.50
2019-02-05T05:01:04.231Z,5.50
2019-02-05T05:04:02.153Z,5.50
2019-02-05T05:06:57.671Z,5.50
2019-02-05T05:09:43.792Z,5.50
2019-02-05T05:12:12.100Z,5.50
2019-02-05T05:14:40.947Z,5.50
2019-02-05T05:17:09.305Z,5.50
2019-02-05T05:19:37.652Z,5.50
2019-02-05T05:22:06.011Z,5.50
2019-02-05T05:24:34.555Z,5.50
2019-02-05T05:27:02.820Z,5.50
2019-02-05T05:29:33.185Z,5.50
2019-02-05T05:32:01.166Z,5.50
2019-02-05T05:34:29.559Z,5.60
2019-02-05T05:36:57.009Z,5.60
2019-02-05T05:39:25.407Z,5.60
2019-02-05T05:41:53.717Z,5.60
2019-02-05T05:44:22.067Z,5.60
2019-02-05T05:46:50.426Z,5.60
2019-02-05T05:49:19.067Z,5.60
2019-02-05T05:51:47.339Z,5.60
2019-02-05T05:54:15.594Z,5.60
2019-02-05T05:56:43.958Z,5.70
2019-02-05T05:59:12.220Z,5.70
2019-02-05T06:01:40.556Z,5.70
2019-02-05T06:04:08.830Z,5.70
2019-02-05T06:06:37.172Z,5.70
2019-02-05T06:09:07.384Z,5.70
2019-02-05T06:11:35.721Z,5.70
2019-02-05T06:14:04.058Z,5.70
2019-02-05T06:16:32.327Z,5.70
2019-02-05T06:19:00.680Z,5.70
2019-02-05T06:21:29.015Z,5.70
2019-02-05T06:24:16.722Z,5.70
2019-02-05T06:26:45.059Z,5.70
2019-02-05T06:29:13.331Z,5.80
2019-02-05T06:31:41.692Z,5.80
2019-02-05T06:34:10.030Z,5.80
2019-02-05T06:36:38.394Z,5.80
2019-02-05T06:39:07.891Z,5.80
2019-02-05T06:41:36.634Z,5.80
2019-02-05T06:44:05.023Z,5.80
2019-02-05T06:46:33.376Z,5.80
2019-02-05T06:49:01.706Z,5.80
2019-02-05T06:51:30.650Z,5.90
2019-02-05T06:53:59.589Z,5.80
2019-02-05T06:56:28.027Z,5.80
2019-02-05T06:58:56.395Z,5.80
2019-02-05T07:01:24.730Z,5.90
2019-02-05T07:03:53.111Z,5.80
2019-02-05T07:06:21.444Z,5.80
2019-02-05T07:08:49.840Z,5.90
2019-02-05T07:11:18.597Z,5.90
2019-02-05T07:13:46.955Z,5.90
2019-02-05T07:16:15.295Z,5.90
2019-02-05T07:18:43.618Z,5.90
2019-02-05T07:21:11.971Z,5.90
2019-02-05T07:23:59.734Z,5.90
2019-02-05T07:26:28.390Z,5.90
2019-02-05T07:28:58.981Z,5.90
2019-02-05T07:31:26.743Z,5.90
2019-02-05T07:33:55.076Z,5.90
2019-02-05T07:36:23.462Z,5.90
2019-02-05T07:38:51.819Z,5.90
2019-02-05T07:41:20.193Z,5.90
2019-02-05T07:43:48.952Z,5.90
2019-02-05T07:46:17.382Z,5.90
2019-02-05T07:48:45.745Z,5.90
2019-02-05T07:51:14.113Z,5.90
2019-02-05T07:53:42.456Z,6.00
2019-02-05T07:56:12.917Z,6.00
2019-02-05T07:58:40.844Z,6.00
2019-02-05T08:01:09.170Z,6.00
2019-02-05T08:03:37.548Z,6.00
2019-02-05T08:06:05.891Z,6.00
2019-02-05T08:08:34.268Z,6.10
2019-02-05T08:11:02.602Z,6.10
2019-02-05T08:13:30.900Z,6.10
2019-02-05T08:15:59.234Z,6.10
2019-02-05T08:18:27.648Z,6.10
2019-02-05T08:20:56.008Z,6.20
2019-02-05T08:23:24.746Z,6.20
2019-02-05T08:25:53.094Z,6.20
2019-02-05T08:28:21.348Z,6.20
2019-02-05T08:30:49.806Z,6.20
2019-02-05T08:33:18.147Z,6.20
2019-02-05T08:35:46.540Z,6.30
2019-02-05T08:38:14.877Z,6.30
2019-02-05T08:40:43.802Z,6.30
2019-02-05T08:43:12.097Z,6.30
2019-02-05T08:45:40.456Z,6.40
2019-02-05T08:48:11.197Z,6.40
2019-02-05T08:50:39.512Z,6.40
2019-02-05T08:53:07.868Z,6.50
2019-02-05T08:55:36.256Z,6.50
2019-02-05T08:58:07.981Z,6.50
2019-02-05T09:00:40.705Z,6.60
2019-02-05T09:03:10.707Z,6.60
2019-02-05T09:05:39.235Z,6.60
2019-02-05T09:08:07.638Z,6.60
2019-02-05T09:10:37.919Z,6.60
2019-02-05T09:13:06.413Z,6.60
2019-02-05T09:15:34.787Z,6.60
2019-02-05T09:18:03.152Z,6.70
2019-02-05T09:20:31.524Z,6.70
2019-02-05T09:22:59.908Z,6.70
2019-02-05T09:25:28.276Z,6.60
2019-02-05T09:27:56.605Z,6.70
2019-02-05T09:30:30.766Z,6.70
2019-02-05T09:33:01.545Z,6.70
2019-02-05T09:35:29.935Z,6.70
2019-02-05T09:37:58.338Z,6.70
2019-02-05T09:40:28.557Z,6.70
2019-02-05T09:42:56.927Z,6.70
2019-02-05T09:45:25.570Z,6.80
2019-02-05T09:47:54.419Z,6.80
2019-02-05T09:50:22.794Z,6.80
2019-02-05T09:52:51.241Z,6.80
2019-02-05T09:55:20.650Z,6.90
2019-02-05T09:57:48.996Z,6.90
2019-02-05T10:00:20.515Z,6.90
2019-02-05T10:02:48.872Z,7.00
2019-02-05T10:05:19.692Z,7.00
2019-02-05T10:07:48.073Z,7.00
2019-02-05T10:10:18.577Z,7.00
2019-02-05T10:12:47.066Z,7.00
2019-02-05T10:15:20.867Z,7.10
2019-02-05T10:17:49.543Z,7.00
2019-02-05T10:20:18.824Z,7.10
2019-02-05T10:22:48.432Z,7.10
2019-02-05T10:25:17.405Z,7.10
2019-02-05T10:27:45.785Z,7.10
2019-02-05T10:30:17.657Z,7.10
2019-02-05T10:32:46.028Z,7.10
2019-02-05T10:35:14.400Z,7.20
2019-02-05T10:37:42.876Z,7.20
2019-02-05T10:40:13.174Z,7.30
2019-02-05T10:42:44.101Z,7.30
2019-02-05T10:45:17.355Z,7.40
2019-02-05T10:47:46.036Z,7.50
2019-02-05T10:50:16.345Z,7.50
2019-02-05T10:52:45.086Z,7.60
2019-02-05T10:55:18.539Z,7.60
2019-02-05T10:57:48.144Z,7.70
2019-02-05T11:00:25.785Z,7.70
2019-02-05T11:02:54.651Z,7.80
2019-02-05T11:05:25.528Z,7.90
2019-02-05T11:07:53.948Z,8.00
2019-02-05T11:10:22.335Z,8.00
2019-02-05T11:12:50.659Z,8.10
2019-02-05T11:15:21.484Z,8.20
2019-02-05T11:17:49.802Z,8.30
2019-02-05T11:20:20.751Z,8.40
2019-02-05T11:22:49.693Z,8.50
2019-02-05T11:25:18.091Z,8.60
2019-02-05T11:27:46.414Z,8.70
2019-02-05T11:30:23.467Z,8.90
2019-02-05T11:32:53.000Z,9.10
2019-02-05T11:35:21.539Z,9.20
2019-02-05T11:37:50.283Z,9.40
2019-02-05T11:40:21.796Z,9.50
2019-02-05T11:42:50.136Z,9.60
2019-02-05T11:45:19.502Z,9.70
2019-02-05T11:47:49.422Z,9.70
2019-02-05T11:50:18.457Z,9.70
2019-02-05T11:52:46.803Z,9.70
2019-02-05T11:55:21.152Z,9.70
2019-02-05T11:57:49.490Z,9.70
2019-02-05T12:00:31.819Z,9.70
2019-02-05T12:02:51.222Z,9.70
2019-02-05T12:05:19.607Z,9.70
2019-02-05T12:07:48.015Z,9.70
2019-02-05T12:10:16.646Z,9.70
2019-02-05T12:12:44.982Z,9.70
2019-02-05T12:15:17.003Z,9.80
2019-02-05T12:17:45.318Z,9.80
2019-02-05T12:20:34.735Z,9.90
2019-02-05T12:23:03.371Z,9.80
2019-02-05T12:25:31.684Z,9.80
2019-02-05T12:28:00.039Z,9.80
2019-02-05T12:30:44.573Z,9.80
2019-02-05T12:33:04.808Z,9.80
2019-02-05T12:35:33.163Z,9.80
2019-02-05T12:38:02.005Z,9.70
2019-02-05T12:40:30.268Z,9.70
2019-02-05T12:42:58.617Z,9.60
2019-02-05T12:45:30.197Z,9.60
2019-02-05T12:47:58.556Z,9.50
2019-02-05T12:50:35.711Z,9.50
2019-02-05T12:53:04.675Z,9.40
2019-02-05T12:55:33.072Z,9.40
2019-02-05T12:58:01.430Z,9.30
2019-02-05T13:00:37.483Z,9.30
2019-02-05T13:03:07.311Z,9.20
2019-02-05T13:05:35.572Z,9.10
2019-02-05T13:08:05.426Z,9.10
2019-02-05T13:10:42.794Z,9.00
2019-02-05T13:13:11.170Z,9.00
2019-02-05T13:15:39.498Z,8.90
2019-02-05T13:18:07.959Z,8.90
2019-02-05T13:20:36.642Z,8.90
2019-02-05T13:23:06.047Z,8.90
2019-02-05T13:25:34.721Z,8.90
2019-02-05T13:28:03.205Z,8.90
2019-02-05T13:30:34.084Z,8.90
2019-02-05T13:33:02.399Z,8.90
2019-02-05T13:35:31.180Z,9.00
2019-02-05T13:37:59.510Z,8.90
2019-02-05T13:40:28.619Z,9.00
2019-02-05T13:42:57.316Z,8.90
2019-02-05T13:45:37.071Z,9.00
2019-02-05T13:48:06.404Z,9.00
2019-02-05T13:50:34.731Z,9.10
2019-02-05T13:53:02.990Z,9.00
2019-02-05T13:55:36.387Z,9.10
2019-02-05T13:58:05.165Z,9.10
2019-02-05T14:00:35.719Z,9.10
2019-02-05T14:03:04.600Z,9.10
2019-02-05T14:05:32.860Z,9.10
2019-02-05T14:08:01.204Z,9.10
2019-02-05T14:10:32.531Z,9.20
2019-02-05T14:13:00.868Z,9.20
2019-02-05T14:15:37.876Z,9.20
2019-02-05T14:18:07.142Z,9.20
2019-02-05T14:20:35.612Z,9.30
2019-02-05T14:23:04.067Z,9.30
2019-02-05T14:25:32.734Z,9.30
2019-02-05T14:28:01.215Z,9.30
2019-02-05T14:30:38.588Z,9.20
2019-02-05T14:33:06.939Z,9.20
2019-02-05T14:35:35.278Z,9.20
2019-02-05T14:38:04.102Z,9.10
2019-02-05T14:40:32.452Z,9.10
2019-02-05T14:43:00.779Z,9.10
2019-02-05T14:45:29.057Z,9.00
2019-02-05T14:47:58.045Z,8.90
2019-02-05T14:50:29.192Z,8.90
2019-02-05T14:52:57.488Z,8.80
2019-02-05T14:55:25.825Z,8.80
2019-02-05T14:57:54.074Z,8.80
2019-02-05T15:00:35.366Z,8.70
2019-02-05T15:03:06.484Z,8.70
2019-02-05T15:05:34.114Z,8.60
2019-02-05T15:08:02.434Z,8.70
2019-02-05T15:10:30.740Z,8.60
2019-02-05T15:12:59.107Z,8.60
2019-02-05T15:15:28.675Z,8.50
2019-02-05T15:17:57.422Z,8.50
2019-02-05T15:20:37.263Z,8.50
2019-02-05T15:23:06.395Z,8.50
2019-02-05T15:25:34.759Z,8.50
2019-02-05T15:28:03.090Z,8.40
2019-02-05T15:30:33.369Z,8.40
2019-02-05T15:33:19.309Z,8.40
2019-02-05T15:36:04.334Z,8.30
2019-02-05T15:38:32.720Z,8.40
2019-02-05T15:41:00.970Z,8.40
2019-02-05T15:43:29.279Z,8.30
2019-02-05T15:45:57.693Z,8.30
2019-02-05T15:48:26.052Z,8.30
2019-02-05T15:50:54.345Z,8.30
2019-02-05T15:53:23.127Z,8.20
2019-02-05T15:55:51.479Z,8.30
2019-02-05T15:58:19.803Z,8.20
2019-02-05T16:00:48.070Z,8.20
2019-02-05T16:03:16.602Z,8.20
2019-02-05T16:05:44.881Z,8.20
2019-02-05T16:08:13.311Z,8.20
2019-02-05T16:10:42.025Z,8.20
2019-02-05T16:13:10.375Z,8.20
2019-02-05T16:15:38.670Z,8.10
2019-02-05T16:18:07.015Z,8.10
2019-02-05T16:20:35.313Z,8.10
2019-02-05T16:23:03.666Z,8.00
2019-02-05T16:25:32.010Z,8.00
2019-02-05T16:28:00.387Z,8.00
2019-02-05T16:30:30.652Z,8.00
2019-02-05T16:32:59.011Z,7.90
2019-02-05T16:35:27.359Z,7.90
2019-02-05T16:37:55.723Z,7.90
2019-02-05T16:40:27.355Z,7.80
2019-02-05T16:42:56.122Z,7.80
2019-02-05T16:45:27.019Z,7.70
2019-02-05T16:47:55.400Z,7.60
2019-02-05T16:50:41.656Z,7.60
2019-02-05T16:53:10.547Z,7.50
2019-02-05T16:55:38.932Z,7.50
2019-02-05T16:58:07.326Z,7.30
2019-02-05T17:00:36.675Z,7.30
2019-02-05T17:03:06.295Z,7.20
2019-02-05T17:05:37.487Z,7.10
2019-02-05T17:08:06.074Z,7.00
2019-02-05T17:10:34.458Z,7.00
2019-02-05T17:13:02.832Z,6.80
2019-02-05T17:15:31.241Z,6.80
2019-02-05T17:17:59.620Z,6.70
2019-02-05T17:20:29.868Z,6.60
2019-02-05T17:23:00.521Z,6.50
2019-02-05T17:25:29.023Z,6.50
2019-02-05T17:27:59.535Z,6.40
2019-02-05T17:30:33.230Z,6.30
2019-02-05T17:33:01.505Z,6.30
2019-02-05T17:35:29.839Z,6.30
2019-02-05T17:37:58.133Z,6.20
2019-02-05T17:40:26.933Z,6.10
2019-02-05T17:42:55.673Z,6.10
2019-02-05T17:45:32.477Z,6.10
2019-02-05T17:48:02.413Z,6.10
2019-02-05T17:50:30.822Z,6.00
2019-02-05T17:52:59.496Z,6.00
2019-02-05T17:55:27.879Z,6.00
2019-02-05T17:57:56.190Z,5.90
2019-02-05T18:00:31.613Z,5.90
2019-02-05T18:02:59.939Z,5.90
2019-02-05T18:05:28.203Z,5.90
2019-02-05T18:07:56.882Z,5.90
2019-02-05T18:10:29.352Z,5.80
2019-02-05T18:12:57.729Z,5.80
2019-02-05T18:15:50.187Z,5.80
2019-02-05T18:18:19.248Z,5.80
2019-02-05T18:20:47.628Z,5.80
2019-02-05T18:23:16.035Z,5.80
2019-02-05T18:25:44.431Z,5.80
2019-02-05T18:28:12.683Z,5.80
2019-02-05T18:30:40.955Z,5.80
2019-02-05T18:33:09.690Z,5.80
2019-02-05T18:35:37.964Z,5.80
2019-02-05T18:38:09.539Z,5.80
2019-02-05T18:40:37.831Z,5.80
2019-02-05T18:43:06.200Z,5.80
2019-02-05T18:45:34.540Z,5.80
2019-02-05T18:48:02.802Z,5.90
2019-02-05T18:50:31.209Z,5.90
2019-02-05T18:52:59.572Z,5.90
2019-02-05T18:55:31.095Z,5.90
2019-02-05T18:58:08.938Z,5.90
2019-02-05T19:00:40.376Z,5.90
2019-02-05T19:03:15.353Z,5.90
2019-02-05T19:05:39.080Z,5.90
2019-02-05T19:08:07.714Z,5.90
2019-02-05T19:10:36.069Z,5.90
2019-02-05T19:13:04.828Z,5.90
2019-02-05T19:15:57.291Z,5.90
2019-02-05T19:18:25.623Z,5.90
2019-02-05T19:20:53.995Z,5.90
2019-02-05T19:23:22.372Z,5.90
2019-02-05T19:25:52.372Z,5.80
2019-02-05T19:28:22.364Z,5.80
2019-02-05T19:30:52.407Z,5.70
2019-02-05T19:33:27.123Z,5.70
2019-02-05T19:35:50.772Z,5.60
2019-02-05T19:38:19.042Z,5.50
2019-02-05T19:40:57.224Z,5.50
2019-02-05T19:43:17.336Z,5.40
2019-02-05T19:46:05.588Z,5.40
2019-02-05T19:48:35.644Z,5.40
2019-02-05T19:51:04.638Z,5.30
2019-02-05T19:53:32.978Z,5.20
2019-02-05T19:56:01.329Z,5.20
2019-02-05T19:58:30.097Z,5.10
2019-02-05T20:00:58.468Z,5.10
2019-02-05T20:03:38.097Z,5.10
2019-02-05T20:05:56.855Z,5.00
2019-02-05T20:08:26.934Z,5.00
2019-02-05T20:10:55.411Z,5.00
2019-02-05T20:13:23.678Z,5.00
2019-02-05T20:15:52.496Z,5.00
2019-02-05T20:18:20.830Z,4.90
2019-02-05T20:20:49.088Z,4.90
2019-02-05T20:23:17.438Z,4.90
2019-02-05T20:25:45.688Z,4.90
2019-02-05T20:28:13.962Z,4.80
2019-02-05T20:30:42.335Z,4.80
2019-02-05T20:33:10.763Z,4.80
2019-02-05T20:35:58.511Z,4.80
2019-02-05T20:38:26.890Z,4.70
2019-02-05T20:40:55.233Z,4.70
2019-02-05T20:43:23.636Z,4.70
2019-02-05T20:45:51.993Z,4.70
2019-02-05T20:48:20.344Z,4.70
2019-02-05T20:50:48.824Z,4.60
2019-02-05T20:53:17.151Z,4.60
2019-02-05T20:55:45.402Z,4.60
2019-02-05T20:58:13.812Z,4.60
2019-02-05T21:00:42.172Z,4.50
2019-02-05T21:03:10.494Z,4.50
2019-02-05T21:05:39.280Z,4.50
2019-02-05T21:08:07.641Z,4.40
2019-02-05T21:10:36.017Z,4.40
2019-02-05T21:13:04.351Z,4.40
2019-02-05T21:15:32.606Z,4.30
2019-02-05T21:18:01.041Z,4.30
2019-02-05T21:20:33.954Z,4.30
2019-02-05T21:23:01.671Z,4.30
2019-02-05T21:25:30.035Z,4.20
2019-02-05T21:27:58.760Z,4.20
2019-02-05T21:30:28.178Z,4.20
2019-02-05T21:32:56.542Z,4.20
2019-02-05T21:35:24.867Z,4.10
2019-02-05T21:37:53.232Z,4.10
2019-02-05T21:40:27.635Z,4.10
2019-02-05T21:42:55.948Z,4.10
2019-02-05T21:45:32.150Z,4.10
2019-02-05T21:48:00.439Z,4.00
2019-02-05T21:50:28.787Z,4.00
2019-02-05T21:52:57.310Z,4.00
2019-02-05T21:55:27.076Z,4.00
2019-02-05T21:57:55.868Z,4.00
2019-02-05T22:00:29.902Z,4.00
2019-02-05T22:02:58.440Z,4.00
2019-02-05T22:05:27.798Z,4.00
2019-02-05T22:07:56.137Z,4.00
2019-02-05T22:10:24.748Z,4.00
2019-02-05T22:12:53.083Z,4.00
2019-02-05T22:15:21.750Z,4.00
2019-02-05T22:17:50.090Z,4.00
2019-02-05T22:20:25.781Z,4.00
2019-02-05T22:22:56.153Z,4.00
2019-02-05T22:25:26.055Z,4.00
2019-02-05T22:27:54.436Z,4.00
2019-02-05T22:30:28.081Z,4.00
2019-02-05T22:32:55.002Z,4.00
2019-02-05T22:35:23.390Z,4.00
2019-02-05T22:37:51.927Z,4.00
2019-02-05T22:40:22.546Z,4.00
2019-02-05T22:42:50.750Z,4.00
2019-02-05T22:45:21.083Z,4.00
2019-02-05T22:47:49.467Z,3.90
2019-02-05T22:50:20.141Z,3.90
2019-02-05T22:52:48.509Z,3.90
2019-02-05T22:55:16.908Z,3.90
2019-02-05T22:57:45.325Z,3.90
2019-02-05T23:00:29.758Z,3.90
2019-02-05T23:02:58.083Z,3.80
2019-02-05T23:05:55.271Z,3.80
2019-02-05T23:08:23.611Z,3.80
2019-02-05T23:11:05.109Z,3.80
2019-02-05T23:13:33.560Z,3.80
2019-02-05T23:16:01.924Z,3.80
2019-02-05T23:18:30.299Z,3.80
2019-02-05T23:20:58.645Z,3.80
2019-02-05T23:23:27.043Z,3.80
2019-02-05T23:25:55.359Z,3.80
2019-02-05T23:28:23.720Z,3.80
2019-02-05T23:30:52.279Z,3.80
2019-02-05T23:33:20.536Z,3.80
2019-02-05T23:35:48.883Z,3.80
2019-02-05T23:38:17.147Z,3.90
2019-02-05T23:40:45.431Z,3.90
2019-02-05T23:43:13.771Z,3.80
2019-02-05T23:45:42.115Z,3.80
2019-02-05T23:48:10.386Z,3.80
2019-02-05T23:50:38.714Z,3.80
2019-02-05T23:53:07.064Z,3.80
2019-02-05T23:55:35.403Z,3.90
2019-02-05T23:58:16.019Z,3.90
